createdAt,value
2018-07-12T15:06:56.322Z,25.60
2018-07-12T15:09:24.973Z,25.40
2018-07-12T15:11:53.265Z,25.30
2018-07-12T15:14:21.748Z,25.30
2018-07-12T15:16:50.261Z,25.20
2018-07-12T15:19:18.780Z,25.10
2018-07-12T15:21:47.188Z,25.00
2018-07-12T15:24:15.681Z,25.00
2018-07-12T15:26:44.180Z,25.00
2018-07-12T15:29:12.708Z,24.90
2018-07-12T15:31:41.255Z,25.00
2018-07-12T15:34:09.669Z,25.00
2018-07-12T15:36:38.148Z,25.00
2018-07-12T15:39:07.392Z,25.10
2018-07-12T15:41:35.903Z,25.10
2018-07-12T15:44:04.458Z,25.10
2018-07-12T15:46:33.173Z,25.00
2018-07-12T15:49:01.613Z,25.10
2018-07-12T15:51:30.072Z,25.10
2018-07-12T15:53:58.562Z,25.10
2018-07-12T15:56:27.025Z,25.10
2018-07-12T15:58:55.522Z,25.10
2018-07-12T16:01:23.975Z,25.10
2018-07-12T16:03:52.505Z,25.10
2018-07-12T16:06:20.936Z,25.20
2018-07-12T16:08:49.426Z,25.20
2018-07-12T16:11:17.906Z,25.30
2018-07-12T16:13:46.396Z,25.30
2018-07-12T16:16:14.860Z,25.20
2018-07-12T16:18:43.296Z,25.30
2018-07-12T16:23:39.898Z,25.30
2018-07-12T16:26:08.457Z,25.30
2018-07-12T16:28:36.938Z,25.30
2018-07-12T16:31:05.422Z,25.40
2018-07-12T16:33:34.681Z,25.70
2018-07-12T16:38:31.268Z,25.90
2018-07-12T16:40:59.716Z,26.10
2018-07-12T16:43:28.232Z,26.20
2018-07-12T16:45:56.664Z,26.10
2018-07-12T16:48:25.122Z,25.90
2018-07-12T16:50:53.586Z,25.80
2018-07-12T16:53:22.285Z,25.70
2018-07-12T16:55:50.776Z,25.60
2018-07-12T16:58:19.248Z,25.60
2018-07-12T17:00:47.720Z,25.60
2018-07-12T17:03:16.192Z,25.50
2018-07-12T17:05:44.689Z,25.50
2018-07-12T17:08:14.417Z,25.50
2018-07-12T17:10:43.073Z,25.40
2018-07-12T17:13:20.155Z,25.40
2018-07-12T17:15:48.801Z,25.40
2018-07-12T17:18:18.294Z,25.20
2018-07-12T17:20:49.046Z,25.20
2018-07-12T17:23:17.582Z,25.00
2018-07-12T17:25:46.071Z,24.90
2018-07-12T17:28:14.512Z,24.70
2018-07-12T17:30:42.988Z,24.70
2018-07-12T17:33:11.496Z,24.60
2018-07-12T17:35:40.005Z,24.60
2018-07-12T17:38:08.514Z,24.60
2018-07-12T17:40:37.008Z,24.50
2018-07-12T17:43:05.551Z,24.50
2018-07-12T17:45:34.312Z,24.50
2018-07-12T17:48:02.925Z,24.40
2018-07-12T17:50:31.527Z,24.30
2018-07-12T17:52:59.998Z,24.30
2018-07-12T17:55:28.498Z,24.40
2018-07-12T17:57:57.868Z,24.40
2018-07-12T18:00:26.358Z,24.30
2018-07-12T18:02:54.899Z,24.30
2018-07-12T18:05:23.460Z,24.10
2018-07-12T18:07:52.256Z,24.00
2018-07-12T18:10:20.881Z,24.00
2018-07-12T18:12:49.776Z,23.90
2018-07-12T18:15:25.079Z,24.00
2018-07-12T18:17:53.630Z,24.00
2018-07-12T18:20:22.116Z,24.00
2018-07-12T18:22:50.616Z,23.90
2018-07-12T18:25:19.252Z,23.90
2018-07-12T18:27:47.743Z,23.90
2018-07-12T18:30:16.204Z,23.80
2018-07-12T18:32:44.663Z,23.70
2018-07-12T18:35:13.188Z,23.60
2018-07-12T18:37:41.649Z,23.60
2018-07-12T18:40:10.168Z,23.50
2018-07-12T18:42:38.625Z,23.40
2018-07-12T18:45:18.215Z,23.30
2018-07-12T18:47:46.945Z,23.30
2018-07-12T18:50:15.457Z,23.20
2018-07-12T18:52:43.923Z,23.20
2018-07-12T18:55:12.467Z,23.10
2018-07-12T18:57:40.944Z,23.10
2018-07-12T19:00:09.443Z,23.10
2018-07-12T19:02:38.431Z,23.10
2018-07-12T19:05:07.278Z,23.10
2018-07-12T19:07:36.748Z,23.10
2018-07-12T19:10:05.246Z,23.00
2018-07-12T19:12:33.715Z,22.90
2018-07-12T19:15:02.246Z,22.90
2018-07-12T19:17:30.824Z,22.80
2018-07-12T19:19:59.327Z,22.80
2018-07-12T19:22:27.828Z,22.70
2018-07-12T19:24:56.305Z,22.70
2018-07-12T19:27:24.828Z,22.60
2018-07-12T19:29:53.282Z,22.50
2018-07-12T19:32:21.768Z,22.50
2018-07-12T19:34:50.294Z,22.40
2018-07-12T19:37:18.787Z,22.40
2018-07-12T19:39:47.283Z,22.40
2018-07-12T19:42:15.826Z,22.30
2018-07-12T19:44:44.308Z,22.30
2018-07-12T19:47:12.855Z,22.20
2018-07-12T19:49:41.299Z,22.20
2018-07-12T19:52:09.796Z,22.10
2018-07-12T19:54:38.248Z,22.10
2018-07-12T19:57:06.714Z,22.00
2018-07-12T19:59:35.227Z,22.00
2018-07-12T20:02:03.776Z,21.90
2018-07-12T20:04:32.280Z,21.90
2018-07-12T20:07:00.735Z,21.80
2018-07-12T20:09:29.336Z,21.80
2018-07-12T20:11:57.817Z,21.70
2018-07-12T20:14:26.377Z,21.50
2018-07-12T20:16:54.812Z,21.40
2018-07-12T20:19:23.252Z,21.30
2018-07-12T20:21:51.723Z,21.30
2018-07-12T20:24:20.182Z,21.20
2018-07-12T20:26:48.638Z,21.10
2018-07-12T20:29:17.117Z,21.00
2018-07-12T20:34:13.773Z,21.00
2018-07-12T20:36:42.296Z,20.90
2018-07-12T20:39:10.776Z,20.80
2018-07-12T20:41:39.291Z,20.80
2018-07-12T20:44:07.768Z,20.80
2018-07-12T20:46:36.328Z,20.80
2018-07-12T20:49:04.813Z,20.70
2018-07-12T20:51:33.296Z,20.70
2018-07-12T20:54:01.797Z,20.80
2018-07-12T20:56:30.384Z,20.80
2018-07-12T20:58:58.884Z,21.00
2018-07-12T21:01:27.333Z,21.10
2018-07-12T21:03:55.836Z,21.00
2018-07-12T21:06:24.296Z,21.00
2018-07-12T21:08:52.747Z,21.10
2018-07-12T21:11:21.223Z,21.00
2018-07-12T21:13:49.711Z,21.00
2018-07-12T21:16:18.174Z,20.90
2018-07-12T21:18:46.700Z,20.90
2018-07-12T21:21:15.153Z,20.90
2018-07-12T21:23:43.722Z,20.90
2018-07-12T21:26:12.111Z,20.90
2018-07-12T21:28:40.606Z,20.80
2018-07-12T21:31:09.131Z,20.80
2018-07-12T21:33:37.692Z,20.80
2018-07-12T21:36:06.344Z,20.90
2018-07-12T21:38:34.776Z,20.80
2018-07-12T21:41:03.261Z,20.70
2018-07-12T21:43:31.752Z,20.70
2018-07-12T21:46:00.466Z,20.70
2018-07-12T21:48:28.948Z,20.50
2018-07-12T21:50:57.417Z,20.50
2018-07-12T21:53:25.978Z,20.50
2018-07-12T21:55:54.429Z,20.40
2018-07-12T21:58:23.073Z,20.40
2018-07-12T22:00:51.579Z,20.30
2018-07-12T22:03:20.240Z,20.40
2018-07-12T22:05:48.725Z,20.20
2018-07-12T22:08:22.021Z,20.20
2018-07-12T22:10:51.842Z,20.20
2018-07-12T22:13:21.175Z,20.10
2018-07-12T22:15:49.625Z,20.00
2018-07-12T22:20:46.257Z,20.00
2018-07-12T22:23:15.592Z,19.90
2018-07-12T22:25:44.044Z,19.90
2018-07-12T22:28:12.486Z,19.80
2018-07-12T22:30:41.045Z,19.70
2018-07-12T22:33:09.459Z,19.70
2018-07-12T22:35:37.924Z,19.60
2018-07-12T22:38:06.382Z,19.60
2018-07-12T22:40:34.848Z,19.50
2018-07-12T22:43:03.273Z,19.50
2018-07-12T22:45:31.721Z,19.50
2018-07-12T22:48:00.221Z,19.50
2018-07-12T22:50:28.617Z,19.50
2018-07-12T22:52:57.080Z,19.50
2018-07-12T22:55:25.512Z,19.40
2018-07-12T22:57:53.971Z,19.30
2018-07-12T23:00:22.453Z,19.20
2018-07-12T23:02:50.931Z,19.00
2018-07-12T23:05:19.417Z,19.00
2018-07-12T23:10:15.988Z,18.90
2018-07-12T23:12:44.444Z,18.90
2018-07-12T23:15:12.894Z,19.00
2018-07-12T23:17:41.353Z,19.00
2018-07-12T23:20:09.811Z,18.90
2018-07-12T23:22:39.282Z,18.80
2018-07-12T23:25:08.749Z,18.70
2018-07-12T23:27:37.184Z,18.60
2018-07-12T23:30:05.756Z,18.60
2018-07-12T23:32:34.188Z,18.60
2018-07-12T23:35:02.656Z,18.50
2018-07-12T23:37:31.104Z,18.50
2018-07-12T23:39:59.557Z,18.40
2018-07-12T23:42:27.996Z,18.40
2018-07-12T23:44:56.430Z,18.40
2018-07-12T23:47:24.876Z,18.30
2018-07-12T23:49:53.354Z,18.30
2018-07-12T23:52:21.819Z,18.20
2018-07-12T23:54:50.290Z,18.20
2018-07-12T23:57:18.764Z,18.10
2018-07-12T23:59:47.221Z,18.10
